createdAt,value
2017-01-07T00:00:59.759Z,-1.05
2017-01-07T00:02:08.737Z,-0.98
2017-01-07T00:03:17.714Z,-1.02
2017-01-07T00:04:26.693Z,-0.91
2017-01-07T00:05:35.672Z,-0.94
2017-01-07T00:06:44.649Z,-0.94
2017-01-07T00:07:53.624Z,-0.97
2017-01-07T00:09:02.631Z,-0.99
2017-01-07T00:10:11.609Z,-1.1
2017-01-07T00:11:20.585Z,-1.01
2017-01-07T00:12:29.562Z,-0.98
2017-01-07T00:13:38.539Z,-0.99
2017-01-07T00:14:47.514Z,-1.09
2017-01-07T00:15:56.490Z,-1.09
2017-01-07T00:17:05.481Z,-1.12
2017-01-07T00:18:14.462Z,-1.17
2017-01-07T00:19:23.442Z,-1.15
2017-01-07T00:20:32.420Z,-1.17
2017-01-07T00:21:41.401Z,-1.17
2017-01-07T00:22:50.378Z,-1.16
2017-01-07T00:23:59.361Z,-1.3
2017-01-07T00:25:08.339Z,-1.31
2017-01-07T00:26:17.325Z,-1.41
2017-01-07T00:27:26.305Z,-1.55
2017-01-07T00:28:35.280Z,-1.56
2017-01-07T00:29:44.260Z,-1.55
2017-01-07T00:30:53.242Z,-1.56
2017-01-07T00:32:02.219Z,-1.61
2017-01-07T00:33:11.201Z,-1.61
2017-01-07T00:34:20.181Z,-1.69
2017-01-07T00:35:29.164Z,-1.7
2017-01-07T00:36:38.145Z,-1.61
2017-01-07T00:37:47.124Z,-1.59
2017-01-07T00:38:56.107Z,-1.55
2017-01-07T00:40:05.088Z,-1.62
2017-01-07T00:41:14.064Z,-1.59
2017-01-07T00:42:23.043Z,-1.62
2017-01-07T00:43:32.024Z,-1.7
2017-01-07T00:44:41.004Z,-1.73
2017-01-07T00:45:49.989Z,-1.8
2017-01-07T00:46:58.972Z,-1.79
2017-01-07T00:48:07.948Z,-1.74
2017-01-07T00:49:16.929Z,-1.9
2017-01-07T00:50:25.907Z,-1.82
2017-01-07T00:51:34.895Z,-1.77
2017-01-07T00:52:43.871Z,-1.76
2017-01-07T00:53:52.848Z,-1.8
2017-01-07T00:55:01.843Z,-1.72
2017-01-07T00:56:10.835Z,-1.82
2017-01-07T00:57:19.811Z,-1.84
2017-01-07T00:58:28.786Z,-1.79
2017-01-07T00:59:37.768Z,-1.8
2017-01-07T01:00:46.754Z,-1.9
2017-01-07T01:01:55.737Z,-1.9
2017-01-07T01:03:04.721Z,-1.74
2017-01-07T01:04:13.707Z,-1.9
2017-01-07T01:05:22.684Z,-1.82
2017-01-07T01:06:31.666Z,-1.74
2017-01-07T01:07:40.659Z,-1.82
2017-01-07T01:08:49.640Z,-1.88
2017-01-07T01:09:58.616Z,-1.92
2017-01-07T01:11:07.595Z,-1.87
2017-01-07T01:12:16.586Z,-1.88
2017-01-07T01:13:25.561Z,-1.87
2017-01-07T01:14:34.537Z,-1.9
2017-01-07T01:15:43.515Z,-1.84
2017-01-07T01:16:52.500Z,-1.84
2017-01-07T01:18:01.477Z,-1.84
2017-01-07T01:19:10.455Z,-1.73
2017-01-07T01:20:19.444Z,-1.77
2017-01-07T01:21:28.418Z,-1.82
2017-01-07T01:22:37.391Z,-1.76
2017-01-07T01:23:46.366Z,-1.73
2017-01-07T01:24:55.344Z,-1.79
2017-01-07T01:26:04.325Z,-1.77
2017-01-07T01:27:13.306Z,-1.72
2017-01-07T01:28:22.286Z,-1.76
2017-01-07T01:29:31.263Z,-1.79
2017-01-07T01:30:40.242Z,-1.72
2017-01-07T01:31:49.645Z,-1.76
2017-01-07T01:32:58.623Z,-1.7
2017-01-07T01:34:07.598Z,-1.64
2017-01-07T01:35:16.581Z,-1.66
2017-01-07T01:36:25.555Z,-1.67
2017-01-07T01:37:34.532Z,-1.73
2017-01-07T01:38:43.502Z,-1.7
2017-01-07T01:39:52.481Z,-1.72
2017-01-07T01:41:01.456Z,-1.7
2017-01-07T01:42:10.426Z,-1.69
2017-01-07T01:43:19.403Z,-1.7
2017-01-07T01:44:28.376Z,-1.76
2017-01-07T01:45:37.354Z,-1.77
2017-01-07T01:46:46.333Z,-1.82
2017-01-07T01:47:55.309Z,-1.73
2017-01-07T01:49:04.298Z,-1.77
2017-01-07T01:50:13.281Z,-1.7
2017-01-07T01:51:22.260Z,-1.76
2017-01-07T01:52:31.243Z,-1.84
2017-01-07T01:53:40.222Z,-1.74
2017-01-07T01:54:49.199Z,-1.77
2017-01-07T01:55:58.204Z,-1.77
2017-01-07T01:57:07.181Z,-1.77
2017-01-07T01:58:16.160Z,-1.73
2017-01-07T01:59:25.134Z,-1.74
2017-01-07T02:00:34.109Z,-1.77
2017-01-07T02:01:43.094Z,-1.72
2017-01-07T02:02:52.096Z,-1.77
2017-01-07T02:04:01.081Z,-1.77
2017-01-07T02:05:10.061Z,-1.77
2017-01-07T02:06:19.039Z,-1.72
2017-01-07T02:07:28.017Z,-1.76
2017-01-07T02:08:36.998Z,-1.84
2017-01-07T02:09:45.977Z,-1.77
2017-01-07T02:10:54.958Z,-1.72
2017-01-07T02:12:03.954Z,-1.73
2017-01-07T02:13:12.955Z,-1.9
2017-01-07T02:14:21.935Z,-1.85
2017-01-07T02:15:30.911Z,-1.87
2017-01-07T02:16:39.887Z,-1.84
2017-01-07T02:17:48.862Z,-1.73
2017-01-07T02:18:57.839Z,-1.8
2017-01-07T02:20:06.818Z,-1.8
2017-01-07T02:21:15.796Z,-1.91
2017-01-07T02:22:24.773Z,-1.88
2017-01-07T02:23:33.749Z,-1.9
2017-01-07T02:24:42.724Z,-1.88
2017-01-07T02:25:51.704Z,-1.91
2017-01-07T02:27:00.679Z,-1.88
2017-01-07T02:28:09.657Z,-1.84
2017-01-07T02:29:18.633Z,-1.79
2017-01-07T02:30:27.635Z,-1.85
2017-01-07T02:31:36.619Z,-1.84
2017-01-07T02:32:45.601Z,-1.8
2017-01-07T02:33:54.577Z,-1.74
2017-01-07T02:35:03.561Z,-1.77
2017-01-07T02:36:12.537Z,-1.84
2017-01-07T02:37:21.515Z,-1.91
2017-01-07T02:38:30.522Z,-1.95
2017-01-07T02:39:39.502Z,-1.91
2017-01-07T02:40:48.481Z,-1.9
2017-01-07T02:41:57.461Z,-1.77
2017-01-07T02:43:06.439Z,-2
2017-01-07T02:44:15.420Z,-1.92
2017-01-07T02:45:24.398Z,-1.87
2017-01-07T02:46:33.375Z,-1.88
2017-01-07T02:47:42.611Z,-1.87
2017-01-07T02:48:51.588Z,-1.79
2017-01-07T02:50:01.515Z,-1.84
2017-01-07T02:51:10.494Z,-1.74
2017-01-07T02:52:19.473Z,-1.77
2017-01-07T02:53:28.445Z,-1.8
2017-01-07T02:54:37.420Z,-1.79
2017-01-07T02:55:46.405Z,-1.85
2017-01-07T02:56:55.388Z,-1.77
2017-01-07T02:58:05.180Z,-1.8
2017-01-07T02:59:16.262Z,-1.77
2017-01-07T03:00:27.513Z,-1.74
2017-01-07T03:01:38.696Z,-1.77
2017-01-07T03:02:48.522Z,-1.82
2017-01-07T03:03:58.109Z,-1.77
2017-01-07T03:05:08.548Z,-1.88
2017-01-07T03:06:18.685Z,-1.82
2017-01-07T03:07:29.317Z,-1.73
2017-01-07T03:08:41.186Z,-1.77
2017-01-07T03:09:51.939Z,-1.82
2017-01-07T03:11:03.415Z,-1.82
2017-01-07T03:12:13.807Z,-1.77
2017-01-07T03:13:22.980Z,-1.79
2017-01-07T03:14:35.193Z,-1.72
2017-01-07T03:15:45.380Z,-1.76
2017-01-07T03:16:55.183Z,-1.7
2017-01-07T03:18:05.490Z,-1.64
2017-01-07T03:19:15.831Z,-1.74
2017-01-07T03:20:25.261Z,-1.85
2017-01-07T03:21:36.314Z,-1.79
2017-01-07T03:22:46.093Z,-1.8
2017-01-07T03:23:55.178Z,-1.82
2017-01-07T03:25:07.018Z,-1.72
2017-01-07T03:26:16.765Z,-1.72
2017-01-07T03:27:26.302Z,-1.72
2017-01-07T03:28:36.938Z,-1.67
2017-01-07T03:29:47.063Z,-1.67
2017-01-07T03:30:57.424Z,-1.61
2017-01-07T03:32:08.439Z,-1.59
2017-01-07T03:33:20.801Z,-1.55
2017-01-07T03:34:30.806Z,-1.62
2017-01-07T03:35:41.276Z,-1.56
2017-01-07T03:36:51.039Z,-1.7
2017-01-07T03:38:01.627Z,-1.67
2017-01-07T03:39:10.792Z,-1.62
2017-01-07T03:40:19.906Z,-1.69
2017-01-07T03:41:31.468Z,-1.58
2017-01-07T03:42:41.885Z,-1.61
2017-01-07T03:43:52.798Z,-1.61
2017-01-07T03:45:03.911Z,-1.61
2017-01-07T03:46:14.671Z,-1.56
2017-01-07T03:47:25.258Z,-1.67
2017-01-07T03:48:35.695Z,-1.67
2017-01-07T03:49:48.565Z,-1.67
2017-01-07T03:50:57.873Z,-1.69
2017-01-07T03:52:07.780Z,-1.67
2017-01-07T03:53:19.697Z,-1.73
2017-01-07T03:54:31.862Z,-1.72
2017-01-07T03:55:40.841Z,-1.7
2017-01-07T03:56:52.552Z,-1.74
2017-01-07T03:58:04.388Z,-1.82
2017-01-07T03:59:13.863Z,-1.74
2017-01-07T04:00:23.976Z,-1.74
2017-01-07T04:01:34.048Z,-1.7
2017-01-07T04:02:44.485Z,-1.74
2017-01-07T04:03:53.547Z,-1.76
2017-01-07T04:05:04.187Z,-1.69
2017-01-07T04:06:15.012Z,-1.72
2017-01-07T04:07:23.990Z,-1.7
2017-01-07T04:08:33.692Z,-1.7
2017-01-07T04:09:45.493Z,-1.74
2017-01-07T04:10:55.416Z,-1.66
2017-01-07T04:12:05.213Z,-1.74
2017-01-07T04:13:14.890Z,-1.72
2017-01-07T04:14:25.345Z,-1.61
2017-01-07T04:15:35.611Z,-1.59
2017-01-07T04:16:45.554Z,-1.7
2017-01-07T04:17:56.422Z,-1.64
2017-01-07T04:19:07.525Z,-1.67
2017-01-07T04:20:17.063Z,-1.72
2017-01-07T04:21:28.510Z,-1.77
2017-01-07T04:22:39.154Z,-1.85
2017-01-07T04:23:52.014Z,-1.82
2017-01-07T04:25:03.076Z,-1.79
2017-01-07T04:26:12.716Z,-1.9
2017-01-07T04:27:21.774Z,-1.8
2017-01-07T04:28:31.111Z,-1.77
2017-01-07T04:29:41.449Z,-1.79
2017-01-07T04:30:51.814Z,-1.79
2017-01-07T04:32:03.767Z,-1.82
2017-01-07T04:33:16.211Z,-1.9
2017-01-07T04:34:27.346Z,-1.8
2017-01-07T04:35:39.256Z,-1.82
2017-01-07T04:36:49.759Z,-1.9
2017-01-07T04:38:02.312Z,-1.87
2017-01-07T04:39:14.458Z,-1.84
2017-01-07T04:40:24.511Z,-1.88
2017-01-07T04:41:34.801Z,-1.8
2017-01-07T04:42:43.899Z,-1.82
2017-01-07T04:43:53.361Z,-1.77
2017-01-07T04:45:02.920Z,-1.77
2017-01-07T04:46:13.276Z,-1.85
2017-01-07T04:47:23.200Z,-1.7
2017-01-07T04:48:33.539Z,-1.77
2017-01-07T04:49:44.017Z,-1.8
2017-01-07T04:50:56.301Z,-1.91
2017-01-07T04:52:08.361Z,-1.8
2017-01-07T04:53:21.344Z,-1.74
2017-01-07T04:54:33.558Z,-1.82
2017-01-07T04:55:46.670Z,-1.85
2017-01-07T04:56:56.658Z,-1.77
2017-01-07T04:58:07.929Z,-1.74
2017-01-07T04:59:20.256Z,-1.7
2017-01-07T05:00:32.551Z,-1.7
2017-01-07T05:01:45.355Z,-1.76
2017-01-07T05:02:54.729Z,-1.76
2017-01-07T05:04:04.845Z,-1.69
2017-01-07T05:05:14.548Z,-1.67
2017-01-07T05:06:25.799Z,-1.74
2017-01-07T05:07:36.128Z,-1.84
2017-01-07T05:08:46.184Z,-1.79
2017-01-07T05:09:57.698Z,-1.77
2017-01-07T05:11:09.441Z,-1.74
2017-01-07T05:12:19.317Z,-1.82
2017-01-07T05:13:28.295Z,-1.77
2017-01-07T05:14:37.278Z,-1.79
2017-01-07T05:15:46.297Z,-1.69
2017-01-07T05:16:55.278Z,-1.73
2017-01-07T05:18:04.278Z,-1.73
2017-01-07T05:19:13.253Z,-1.76
2017-01-07T05:20:22.227Z,-1.8
2017-01-07T05:21:31.204Z,-1.77
2017-01-07T05:22:40.180Z,-1.74
2017-01-07T05:23:49.165Z,-1.77
2017-01-07T05:24:58.143Z,-1.74
2017-01-07T05:26:07.127Z,-1.84
2017-01-07T05:27:16.100Z,-1.72
2017-01-07T05:28:25.073Z,-1.72
2017-01-07T05:29:34.079Z,-1.72
2017-01-07T05:30:43.056Z,-1.7
2017-01-07T05:31:52.042Z,-1.69
2017-01-07T05:33:01.020Z,-1.79
2017-01-07T05:34:09.994Z,-1.79
2017-01-07T05:35:18.973Z,-1.85
2017-01-07T05:36:27.949Z,-1.79
2017-01-07T05:37:36.928Z,-1.73
2017-01-07T05:38:45.909Z,-1.73
2017-01-07T05:39:54.891Z,-1.76
2017-01-07T05:41:03.865Z,-1.69
2017-01-07T05:42:12.846Z,-1.74
2017-01-07T05:43:21.830Z,-1.73
2017-01-07T05:44:30.834Z,-1.72
2017-01-07T05:45:39.810Z,-1.7
2017-01-07T05:46:48.792Z,-1.7
2017-01-07T05:47:57.769Z,-1.61
2017-01-07T05:49:06.746Z,-1.64
2017-01-07T05:50:15.723Z,-1.56
2017-01-07T05:51:24.699Z,-1.62
2017-01-07T05:52:33.678Z,-1.55
2017-01-07T05:53:42.686Z,-1.58
2017-01-07T05:54:51.663Z,-1.56
2017-01-07T05:56:00.642Z,-1.58
2017-01-07T05:57:09.633Z,-1.51
2017-01-07T05:58:18.612Z,-1.51
2017-01-07T05:59:27.591Z,-1.56
2017-01-07T06:00:36.578Z,-1.72
2017-01-07T06:01:45.556Z,-1.8
2017-01-07T06:02:54.531Z,-1.73
2017-01-07T06:04:03.515Z,-1.69
2017-01-07T06:05:12.494Z,-1.72
2017-01-07T06:06:21.474Z,-1.72
2017-01-07T06:07:30.449Z,-1.82
2017-01-07T06:08:39.430Z,-1.84
2017-01-07T06:09:48.409Z,-1.79
2017-01-07T06:10:57.390Z,-1.9
2017-01-07T06:12:06.373Z,-1.88
2017-01-07T06:13:15.356Z,-1.91
2017-01-07T06:14:24.335Z,-1.91
2017-01-07T06:15:33.310Z,-1.9
2017-01-07T06:16:42.284Z,-1.94
2017-01-07T06:17:51.266Z,-2
2017-01-07T06:19:00.242Z,-1.94
2017-01-07T06:20:09.217Z,-1.92
2017-01-07T06:21:18.192Z,-1.88
2017-01-07T06:22:27.177Z,-1.85
2017-01-07T06:23:36.155Z,-1.82
2017-01-07T06:24:45.133Z,-1.8
2017-01-07T06:25:54.113Z,-1.85
2017-01-07T06:27:03.090Z,-1.87
2017-01-07T06:28:12.096Z,-1.77
2017-01-07T06:29:21.073Z,-1.76
2017-01-07T06:30:30.053Z,-1.79
2017-01-07T06:31:39.037Z,-1.77
2017-01-07T06:32:48.011Z,-1.69
2017-01-07T06:33:56.987Z,-1.7
2017-01-07T06:35:05.966Z,-1.64
2017-01-07T06:36:14.944Z,-1.72
2017-01-07T06:37:23.923Z,-1.74
2017-01-07T06:38:32.898Z,-1.77
2017-01-07T06:39:41.875Z,-1.77
2017-01-07T06:40:50.869Z,-1.77
2017-01-07T06:41:59.864Z,-1.79
2017-01-07T06:43:08.850Z,-1.79
2017-01-07T06:44:17.829Z,-1.73
2017-01-07T06:45:26.803Z,-1.77
2017-01-07T06:46:35.810Z,-1.76
2017-01-07T06:47:44.792Z,-1.79
2017-01-07T06:48:53.770Z,-1.76
2017-01-07T06:50:02.753Z,-1.72
2017-01-07T06:51:11.753Z,-1.7
2017-01-07T06:52:20.729Z,-1.76
2017-01-07T06:53:29.735Z,-1.7
2017-01-07T06:54:38.711Z,-1.77
2017-01-07T06:55:47.692Z,-1.82
2017-01-07T06:56:56.667Z,-1.82
2017-01-07T06:58:05.644Z,-1.85
2017-01-07T06:59:14.622Z,-1.74
2017-01-07T07:00:23.594Z,-1.79
2017-01-07T07:01:32.568Z,-1.8
2017-01-07T07:02:41.543Z,-1.84
2017-01-07T07:03:50.518Z,-1.73
2017-01-07T07:04:59.498Z,-1.7
2017-01-07T07:06:08.479Z,-1.9
2017-01-07T07:07:17.456Z,-1.84
2017-01-07T07:08:26.435Z,-1.84
2017-01-07T07:09:35.410Z,-1.76
2017-01-07T07:10:44.388Z,-1.87
2017-01-07T07:11:53.371Z,-1.8
2017-01-07T07:13:02.354Z,-1.79
2017-01-07T07:14:11.333Z,-1.77
2017-01-07T07:15:20.308Z,-1.79
2017-01-07T07:16:29.283Z,-1.82
2017-01-07T07:17:38.263Z,-1.82
2017-01-07T07:18:47.237Z,-1.7
2017-01-07T07:19:56.215Z,-1.72
2017-01-07T07:21:05.196Z,-1.74
2017-01-07T07:22:14.170Z,-1.7
2017-01-07T07:23:23.147Z,-1.73
2017-01-07T07:24:32.123Z,-1.67
2017-01-07T07:25:41.106Z,-1.74
2017-01-07T07:26:50.090Z,-1.8
2017-01-07T07:27:59.069Z,-1.84
2017-01-07T07:29:08.046Z,-1.8
2017-01-07T07:30:17.023Z,-1.88
2017-01-07T07:31:25.999Z,-1.76
2017-01-07T07:32:34.976Z,-1.8
2017-01-07T07:33:43.959Z,-1.82
2017-01-07T07:34:52.940Z,-1.85
2017-01-07T07:36:01.916Z,-1.74
2017-01-07T07:37:10.899Z,-1.82
2017-01-07T07:38:19.900Z,-1.77
2017-01-07T07:39:28.874Z,-1.82
2017-01-07T07:40:37.854Z,-1.77
2017-01-07T07:41:46.850Z,-1.79
2017-01-07T07:42:55.827Z,-1.79
2017-01-07T07:44:04.804Z,-1.74
2017-01-07T07:45:13.780Z,-1.79
2017-01-07T07:46:22.755Z,-1.67
2017-01-07T07:47:31.735Z,-1.74
2017-01-07T07:48:40.713Z,-1.77
2017-01-07T07:49:49.692Z,-1.72
2017-01-07T07:50:58.693Z,-1.72
2017-01-07T07:52:07.684Z,-1.73
2017-01-07T07:53:16.659Z,-1.62
2017-01-07T07:54:25.633Z,-1.62
2017-01-07T07:55:34.611Z,-1.61
2017-01-07T07:56:43.591Z,-1.64
2017-01-07T07:57:52.581Z,-1.55
2017-01-07T07:59:01.558Z,-1.55
2017-01-07T08:00:10.534Z,-1.54
2017-01-07T08:01:19.509Z,-1.38
2017-01-07T08:02:28.482Z,-1.45
2017-01-07T08:03:37.463Z,-1.55
2017-01-07T08:04:46.442Z,-1.49
2017-01-07T08:05:55.421Z,-1.54
2017-01-07T08:07:04.406Z,-1.58
2017-01-07T08:08:13.386Z,-1.69
2017-01-07T08:09:22.360Z,-1.67
2017-01-07T08:10:31.366Z,-1.72
2017-01-07T08:11:40.347Z,-1.72
2017-01-07T08:12:49.327Z,-1.77
2017-01-07T08:13:58.309Z,-1.73
2017-01-07T08:15:07.290Z,-1.7
2017-01-07T08:16:16.271Z,-1.7
2017-01-07T08:17:25.246Z,-1.58
2017-01-07T08:18:34.226Z,-1.61
2017-01-07T08:19:43.201Z,-1.58
2017-01-07T08:20:52.180Z,-1.61
2017-01-07T08:22:01.168Z,-1.55
2017-01-07T08:23:10.153Z,-1.61
2017-01-07T08:24:19.136Z,-1.69
2017-01-07T08:25:28.115Z,-1.7
2017-01-07T08:26:37.091Z,-1.73
2017-01-07T08:27:46.064Z,-1.67
2017-01-07T08:28:55.043Z,-1.69
2017-01-07T08:30:04.017Z,-1.58
2017-01-07T08:31:13.000Z,-1.58
2017-01-07T08:32:21.983Z,-1.59
2017-01-07T08:33:30.959Z,-1.61
2017-01-07T08:34:39.947Z,-1.59
2017-01-07T08:35:48.927Z,-1.54
2017-01-07T08:36:57.906Z,-1.55
2017-01-07T08:38:06.887Z,-1.61
2017-01-07T08:39:15.872Z,-1.67
2017-01-07T08:40:24.857Z,-1.72
2017-01-07T08:41:33.834Z,-1.73
2017-01-07T08:42:42.815Z,-1.82
2017-01-07T08:43:51.787Z,-1.8
2017-01-07T08:45:00.786Z,-1.72
2017-01-07T08:46:09.762Z,-1.7
2017-01-07T08:47:18.745Z,-1.72
2017-01-07T08:48:27.726Z,-1.66
2017-01-07T08:49:36.702Z,-1.85
2017-01-07T08:50:45.680Z,-1.77
2017-01-07T08:51:54.661Z,-1.84
2017-01-07T08:53:03.640Z,-1.82
2017-01-07T08:54:12.616Z,-1.73
2017-01-07T08:55:21.596Z,-1.72
2017-01-07T08:56:30.574Z,-1.56
2017-01-07T08:57:39.555Z,-1.56
2017-01-07T08:58:48.948Z,-1.41
2017-01-07T08:59:57.929Z,-1.35
2017-01-07T09:01:06.918Z,-1.27
2017-01-07T09:02:15.897Z,-1.3
2017-01-07T09:03:24.870Z,-1.28
2017-01-07T09:04:33.848Z,-1.22
2017-01-07T09:05:42.823Z,-1.19
2017-01-07T09:06:51.800Z,-1.22
2017-01-07T09:08:00.776Z,-1.07
2017-01-07T09:09:09.759Z,-1.01
2017-01-07T09:10:18.740Z,-1.01
2017-01-07T09:11:27.721Z,-0.98
2017-01-07T09:12:36.708Z,-1.1
2017-01-07T09:13:45.692Z,-1.02
2017-01-07T09:14:54.667Z,-1.04
2017-01-07T09:16:03.677Z,-1.05
2017-01-07T09:17:12.655Z,-1.04
2017-01-07T09:18:21.677Z,-1.09
2017-01-07T09:19:30.660Z,-1.17
2017-01-07T09:20:39.676Z,-1.12
2017-01-07T09:21:48.657Z,-1.07
2017-01-07T09:22:57.635Z,-1.13
2017-01-07T09:24:06.614Z,-1.25
2017-01-07T09:25:15.593Z,-1.31
2017-01-07T09:26:24.568Z,-1.3
2017-01-07T09:27:33.559Z,-1.31
2017-01-07T09:28:42.538Z,-1.33
2017-01-07T09:29:51.517Z,-1.27
2017-01-07T09:31:00.503Z,-1.31
2017-01-07T09:32:09.479Z,-1.34
2017-01-07T09:33:18.454Z,-1.3
2017-01-07T09:34:27.437Z,-1.25
2017-01-07T09:35:36.419Z,-1.3
2017-01-07T09:36:45.400Z,-1.35
2017-01-07T09:37:54.383Z,-1.41
2017-01-07T09:39:03.362Z,-1.34
2017-01-07T09:40:12.343Z,-1.31
2017-01-07T09:41:21.318Z,-1.28
2017-01-07T09:42:30.293Z,-1.15
2017-01-07T09:43:39.290Z,-1.15
2017-01-07T09:44:48.337Z,-1.1
2017-01-07T09:45:57.312Z,-1.04
2017-01-07T09:47:06.297Z,-0.99
2017-01-07T09:48:15.283Z,-0.98
2017-01-07T09:49:24.261Z,-0.92
2017-01-07T09:50:33.343Z,-0.99
2017-01-07T09:51:42.331Z,-0.95
2017-01-07T09:52:51.321Z,-0.98
2017-01-07T09:54:00.304Z,-0.98
2017-01-07T09:55:09.794Z,-1.05
2017-01-07T09:56:18.779Z,-1.04
2017-01-07T09:57:27.755Z,-0.99
2017-01-07T09:58:36.735Z,-0.98
2017-01-07T09:59:45.719Z,-0.92
2017-01-07T10:00:54.697Z,-0.95
2017-01-07T10:02:03.679Z,-0.97
2017-01-07T10:03:12.664Z,-0.97
2017-01-07T10:04:21.668Z,-0.98
2017-01-07T10:05:30.862Z,-1.09
2017-01-07T10:06:40.043Z,-1.23
2017-01-07T10:07:49.026Z,-1.22
2017-01-07T10:08:58.009Z,-1.15
2017-01-07T10:10:06.985Z,-1.12
2017-01-07T10:11:16.214Z,-1.12
2017-01-07T10:12:25.192Z,-1.09
2017-01-07T10:13:34.244Z,-0.99
2017-01-07T10:14:43.537Z,-0.99
2017-01-07T10:15:53.269Z,-1.05
2017-01-07T10:17:02.471Z,-1.07
2017-01-07T10:18:11.451Z,-1.02
2017-01-07T10:19:20.964Z,-0.99
2017-01-07T10:20:30.393Z,-1.05
2017-01-07T10:21:39.481Z,-1.07
2017-01-07T10:22:48.461Z,-1.09
2017-01-07T10:23:57.436Z,-1.12
2017-01-07T10:25:06.830Z,-1.07
2017-01-07T10:26:16.216Z,-1.04
2017-01-07T10:27:25.199Z,-1.02
2017-01-07T10:28:34.202Z,-0.95
2017-01-07T10:29:43.182Z,-1.04
2017-01-07T10:30:52.163Z,-1.01
2017-01-07T10:32:01.144Z,-1.02
2017-01-07T10:33:10.123Z,-0.99
2017-01-07T10:34:19.624Z,-0.95
2017-01-07T10:35:30.807Z,-0.97
2017-01-07T10:36:42.950Z,-0.99
2017-01-07T10:37:53.715Z,-0.94
2017-01-07T10:39:04.580Z,-0.91
2017-01-07T10:40:15.147Z,-0.95
2017-01-07T10:41:24.433Z,-0.97
2017-01-07T10:42:35.072Z,-0.79
2017-01-07T10:43:45.085Z,-0.76
2017-01-07T10:44:56.110Z,-0.89
2017-01-07T10:46:07.060Z,-0.94
2017-01-07T10:47:18.378Z,-0.99
2017-01-07T10:48:28.667Z,-0.92
2017-01-07T10:49:39.048Z,-0.92
2017-01-07T10:50:48.031Z,-0.94
2017-01-07T10:51:57.012Z,-0.86
2017-01-07T10:53:07.955Z,-0.97
2017-01-07T10:54:18.616Z,-0.91
2017-01-07T10:55:28.032Z,-0.83
2017-01-07T10:56:37.020Z,-0.83
2017-01-07T10:57:46.018Z,-0.7
2017-01-07T10:58:55.055Z,-0.72
2017-01-07T11:00:04.185Z,-0.73
2017-01-07T11:01:13.760Z,-0.73
2017-01-07T11:02:24.407Z,-0.7
2017-01-07T11:03:33.612Z,-0.7
2017-01-07T11:04:42.614Z,-0.65
2017-01-07T11:05:51.592Z,-0.47
2017-01-07T11:07:00.659Z,-0.52
2017-01-07T11:08:09.652Z,-0.65
2017-01-07T11:09:19.857Z,-0.61
2017-01-07T11:10:31.713Z,-0.62
2017-01-07T11:11:40.695Z,-0.69
2017-01-07T11:12:49.694Z,-0.52
2017-01-07T11:13:58.847Z,-0.61
2017-01-07T11:15:07.835Z,-0.64
2017-01-07T11:16:16.998Z,-0.54
2017-01-07T11:17:25.979Z,-0.55
2017-01-07T11:18:35.150Z,-0.55
2017-01-07T11:19:44.334Z,-0.46
2017-01-07T11:20:53.313Z,-0.39
2017-01-07T11:22:02.291Z,-0.37
2017-01-07T11:23:11.268Z,-0.44
2017-01-07T11:24:20.262Z,-0.39
2017-01-07T11:25:29.246Z,-0.4
2017-01-07T11:26:38.238Z,-0.42
2017-01-07T11:27:47.217Z,-0.37
2017-01-07T11:28:56.205Z,-0.37
2017-01-07T11:30:05.292Z,-0.36
2017-01-07T11:31:14.297Z,-0.4
2017-01-07T11:32:23.282Z,-0.44
2017-01-07T11:33:32.260Z,-0.42
2017-01-07T11:34:41.239Z,-0.42
2017-01-07T11:35:50.221Z,-0.42
2017-01-07T11:36:59.242Z,-0.4
2017-01-07T11:38:08.237Z,-0.42
2017-01-07T11:39:17.220Z,-0.51
2017-01-07T11:40:26.369Z,-0.43
2017-01-07T11:41:35.344Z,-0.43
2017-01-07T11:42:45.442Z,-0.47
2017-01-07T11:43:54.546Z,-0.42
2017-01-07T11:45:04.230Z,-0.47
2017-01-07T11:46:13.211Z,-0.44
2017-01-07T11:47:22.200Z,-0.43
2017-01-07T11:48:32.548Z,-0.47
2017-01-07T11:49:43.444Z,-0.43
2017-01-07T11:50:52.678Z,-0.46
2017-01-07T11:52:01.652Z,-0.4
2017-01-07T11:53:10.779Z,-0.37
2017-01-07T11:54:19.763Z,-0.4
2017-01-07T11:55:29.004Z,-0.4
2017-01-07T11:56:38.041Z,-0.37
2017-01-07T11:57:47.018Z,-0.34
2017-01-07T11:58:56.025Z,-0.29
2017-01-07T12:00:05.016Z,-0.29
2017-01-07T12:01:13.995Z,-0.28
2017-01-07T12:02:22.984Z,-0.29
2017-01-07T12:03:31.988Z,-0.26
2017-01-07T12:04:40.971Z,-0.34
2017-01-07T12:05:49.946Z,-0.39
2017-01-07T12:06:58.928Z,-0.28
2017-01-07T12:08:07.909Z,-0.21
2017-01-07T12:09:16.890Z,-0.22
2017-01-07T12:10:25.870Z,-0.25
2017-01-07T12:11:34.843Z,-0.18
2017-01-07T12:12:43.958Z,-0.25
2017-01-07T12:13:53.034Z,-0.31
2017-01-07T12:15:02.029Z,-0.23
2017-01-07T12:16:11.487Z,-0.39
2017-01-07T12:17:20.472Z,-0.39
2017-01-07T12:18:29.713Z,-0.46
2017-01-07T12:19:38.700Z,-0.43
2017-01-07T12:20:47.684Z,-0.42
2017-01-07T12:21:56.679Z,-0.4
2017-01-07T12:23:05.664Z,-0.4
2017-01-07T12:24:14.643Z,-0.46
2017-01-07T12:25:23.665Z,-0.46
2017-01-07T12:26:32.910Z,-0.36
2017-01-07T12:27:41.889Z,-0.51
2017-01-07T12:28:50.872Z,-0.44
2017-01-07T12:30:00.263Z,-0.46
2017-01-07T12:31:12.456Z,-0.51
2017-01-07T12:32:21.647Z,-0.51
2017-01-07T12:33:31.115Z,-0.47
2017-01-07T12:34:41.285Z,-0.55
2017-01-07T12:35:51.101Z,-0.51
2017-01-07T12:37:01.010Z,-0.54
2017-01-07T12:38:10.355Z,-0.55
2017-01-07T12:39:20.428Z,-0.55
2017-01-07T12:40:29.443Z,-0.75
2017-01-07T12:41:39.001Z,-0.65
2017-01-07T12:42:48.275Z,-0.72
2017-01-07T12:43:58.317Z,-0.69
2017-01-07T12:45:08.218Z,-0.76
2017-01-07T12:46:18.273Z,-0.75
2017-01-07T12:47:28.477Z,-0.73
2017-01-07T12:48:39.141Z,-0.78
2017-01-07T12:49:49.346Z,-0.8
2017-01-07T12:50:59.643Z,-0.79
2017-01-07T12:52:09.951Z,-0.73
2017-01-07T12:53:20.110Z,-0.76
2017-01-07T12:54:31.246Z,-0.78
2017-01-07T12:55:40.541Z,-0.79
2017-01-07T12:56:51.039Z,-0.85
2017-01-07T12:58:01.610Z,-0.91
2017-01-07T12:59:12.282Z,-0.98
2017-01-07T13:00:22.290Z,-0.97
2017-01-07T13:01:32.544Z,-0.91
2017-01-07T13:02:42.723Z,-0.97
2017-01-07T13:03:52.309Z,-0.97
2017-01-07T13:05:02.396Z,-0.98
2017-01-07T13:06:12.615Z,-0.95
2017-01-07T13:07:21.593Z,-0.94
2017-01-07T13:08:30.697Z,-0.94
2017-01-07T13:09:40.087Z,-0.89
2017-01-07T13:10:49.600Z,-0.85
2017-01-07T13:11:58.730Z,-1.01
2017-01-07T13:13:08.085Z,-0.92
2017-01-07T13:14:17.734Z,-0.97
2017-01-07T13:15:28.147Z,-0.99
2017-01-07T13:16:37.488Z,-1.01
2017-01-07T13:17:46.772Z,-1.02
2017-01-07T13:18:55.751Z,-0.99
2017-01-07T13:20:09.109Z,-0.92
2017-01-07T13:21:18.099Z,-0.97
2017-01-07T13:22:27.111Z,-0.95
2017-01-07T13:23:36.089Z,-0.95
2017-01-07T13:24:45.076Z,-0.85
2017-01-07T13:25:54.097Z,-0.89
2017-01-07T13:27:03.080Z,-0.86
2017-01-07T13:28:12.060Z,-0.91
2017-01-07T13:29:21.044Z,-1.01
2017-01-07T13:30:30.041Z,-0.99
2017-01-07T13:31:40.456Z,-0.98
2017-01-07T13:32:52.270Z,-0.99
2017-01-07T13:34:04.016Z,-1.02
2017-01-07T13:35:15.969Z,-0.98
2017-01-07T13:36:28.170Z,-1.01
2017-01-07T13:37:40.752Z,-1.01
2017-01-07T13:38:51.870Z,-1.07
2017-01-07T13:40:02.278Z,-1.01
2017-01-07T13:41:11.259Z,-0.98
2017-01-07T13:42:20.238Z,-0.92
2017-01-07T13:43:29.223Z,-0.98
2017-01-07T13:44:38.202Z,-0.92
2017-01-07T13:45:47.179Z,-0.97
2017-01-07T13:46:56.158Z,-0.98
2017-01-07T13:48:05.141Z,-1.01
2017-01-07T13:49:14.124Z,-1.02
2017-01-07T13:50:23.098Z,-0.95
2017-01-07T13:51:32.077Z,-0.98
2017-01-07T13:52:41.061Z,-0.98
2017-01-07T13:53:50.050Z,-1.04
2017-01-07T13:54:59.028Z,-1.16
2017-01-07T13:56:08.032Z,-1.23
2017-01-07T13:57:17.022Z,-1.16
2017-01-07T13:58:26.010Z,-1.23
2017-01-07T13:59:34.990Z,-1.33
2017-01-07T14:00:43.969Z,-1.31
2017-01-07T14:01:52.994Z,-1.37
2017-01-07T14:03:02.006Z,-1.34
2017-01-07T14:04:11.701Z,-1.37
2017-01-07T14:05:22.468Z,-1.41
2017-01-07T14:06:34.869Z,-1.52
2017-01-07T14:07:47.896Z,-1.45
2017-01-07T14:09:03.713Z,-1.59
2017-01-07T14:10:18.177Z,-1.41
2017-01-07T14:11:30.930Z,-1.37
2017-01-07T14:12:45.036Z,-1.37
2017-01-07T14:13:58.018Z,-1.41
2017-01-07T14:15:10.692Z,-1.51
2017-01-07T14:16:25.804Z,-1.43
2017-01-07T14:17:43.213Z,-1.46
2017-01-07T14:18:56.637Z,-1.4
2017-01-07T14:20:09.136Z,-1.56
2017-01-07T14:21:21.542Z,-1.51
2017-01-07T14:22:34.234Z,-1.54
2017-01-07T14:23:46.375Z,-1.43
2017-01-07T14:24:58.827Z,-1.35
2017-01-07T14:26:12.427Z,-1.4
2017-01-07T14:27:24.395Z,-1.43
2017-01-07T14:28:36.551Z,-1.45
2017-01-07T14:29:48.854Z,-1.4
2017-01-07T14:31:00.537Z,-1.43
2017-01-07T14:32:12.795Z,-1.45
2017-01-07T14:33:25.097Z,-1.58
2017-01-07T14:34:37.265Z,-1.45
2017-01-07T14:35:49.412Z,-1.52
2017-01-07T14:37:02.048Z,-1.55
2017-01-07T14:38:14.374Z,-1.64
2017-01-07T14:39:26.568Z,-1.59
2017-01-07T14:40:38.669Z,-1.54
2017-01-07T14:41:50.919Z,-1.54
2017-01-07T14:43:03.457Z,-1.61
2017-01-07T14:44:15.638Z,-1.61
2017-01-07T14:45:27.958Z,-1.61
2017-01-07T14:46:38.524Z,-1.69
2017-01-07T14:47:47.506Z,-1.64
2017-01-07T14:48:56.487Z,-1.56
2017-01-07T14:50:05.467Z,-1.62
2017-01-07T14:51:14.465Z,-1.64
2017-01-07T14:52:23.444Z,-1.61
2017-01-07T14:53:32.422Z,-1.61
2017-01-07T14:54:41.409Z,-1.59
2017-01-07T14:55:50.392Z,-1.72
2017-01-07T14:56:59.371Z,-1.67
2017-01-07T14:58:08.354Z,-1.66
2017-01-07T14:59:17.335Z,-1.58